Alderetes, Argentina
Current Conditions -  °F | °C
As of 11:00 PM on Wednesday 26 Nov 2014 (Local Time) from SANT Reporting Station
Overcast Overcast  
Wind Chill: 70°   Ceiling: 2000
Heat Index: 70°   Visibility: 4mi
Dew Point: 66°   Wind: 9mph
Humidity: 88%   Direction: 320°NW
Pressure: 30"   Gusts: NA
Location:  26.88°S, 65.09°W
Report Text: SANT 270200Z 32008KT 7000 BKN020 OVC03521/19 Q1016
Loading
Personal Weather Stations






























Interactive Weather Map New forecast layout! Learn more

10-Day Weather Forecast

Advertisements
Track Severe Weather on mobile